createdAt,value
2022-11-24T00:00:21.454Z,19.67
2022-11-24T00:02:48.905Z,18.00
2022-11-24T00:05:16.290Z,14.83
2022-11-24T00:07:43.692Z,20.80
2022-11-24T00:10:11.359Z,24.47
2022-11-24T00:12:38.700Z,17.83
2022-11-24T00:15:06.327Z,18.33
2022-11-24T00:17:35.071Z,17.93
2022-11-24T00:20:02.357Z,15.23
2022-11-24T00:22:29.663Z,14.00
2022-11-24T00:24:56.980Z,16.83
2022-11-24T00:27:24.345Z,23.00
2022-11-24T00:29:52.076Z,17.67
2022-11-24T00:32:19.346Z,14.70
2022-11-24T00:34:48.014Z,14.97
2022-11-24T00:37:28.060Z,14.10
2022-11-24T00:40:00.500Z,17.03
2022-11-24T00:42:27.839Z,11.90
2022-11-24T00:44:55.235Z,27.90
2022-11-24T00:47:22.573Z,18.43
2022-11-24T00:49:51.695Z,22.03
2022-11-24T00:52:19.025Z,12.77
2022-11-24T00:54:46.403Z,14.03
2022-11-24T00:57:13.703Z,9.37
2022-11-24T00:59:41.060Z,15.23
2022-11-24T01:02:08.849Z,14.47
2022-11-24T01:04:36.586Z,15.97
2022-11-24T01:07:19.259Z,9.10
2022-11-24T01:09:48.192Z,11.40
2022-11-24T01:12:15.533Z,11.37
2022-11-24T01:14:42.880Z,13.13
2022-11-24T01:17:10.153Z,15.20
2022-11-24T01:19:37.457Z,12.53
2022-11-24T01:22:05.464Z,11.30
2022-11-24T01:24:33.044Z,10.07
2022-11-24T01:27:02.034Z,16.23
2022-11-24T01:29:29.403Z,15.87
2022-11-24T01:31:56.701Z,14.13
2022-11-24T01:34:24.039Z,13.17
2022-11-24T01:37:12.853Z,9.73
2022-11-24T01:39:57.944Z,13.00
2022-11-24T01:42:26.727Z,13.90
2022-11-24T01:45:15.292Z,10.60
2022-11-24T01:47:42.585Z,14.73
2022-11-24T01:50:10.995Z,11.17
2022-11-24T01:52:39.269Z,13.83
2022-11-24T01:55:08.687Z,15.50
2022-11-24T01:57:39.445Z,14.23
2022-11-24T02:00:08.396Z,15.73
2022-11-24T02:02:45.298Z,14.93
2022-11-24T02:05:14.345Z,15.73
2022-11-24T02:07:41.731Z,13.17
2022-11-24T02:10:10.740Z,15.53
2022-11-24T02:12:40.203Z,9.07
2022-11-24T02:15:09.109Z,12.63
2022-11-24T02:17:36.438Z,7.17
2022-11-24T02:20:05.001Z,9.23
2022-11-24T02:22:41.379Z,11.00
2022-11-24T02:27:54.261Z,8.83
2022-11-24T02:30:21.758Z,11.33
2022-11-24T02:32:49.191Z,9.90
2022-11-24T02:35:16.583Z,6.20
2022-11-24T02:37:46.274Z,8.53
2022-11-24T02:40:19.714Z,5.33
2022-11-24T02:43:03.850Z,7.73
2022-11-24T02:45:32.354Z,6.30
2022-11-24T02:47:59.764Z,8.07
2022-11-24T02:50:27.519Z,4.27
2022-11-24T02:52:55.009Z,7.30
2022-11-24T02:55:22.714Z,3.80
2022-11-24T02:57:50.154Z,7.77
2022-11-24T03:00:19.902Z,7.53
2022-11-24T03:02:47.601Z,3.83
2022-11-24T03:05:15.049Z,2.17
2022-11-24T03:07:45.699Z,7.03
2022-11-24T03:10:13.195Z,8.57
2022-11-24T03:12:40.548Z,10.47
2022-11-24T03:15:13.373Z,5.57
2022-11-24T03:17:42.152Z,6.73
2022-11-24T03:20:10.370Z,8.93
2022-11-24T03:22:37.864Z,5.37
2022-11-24T03:25:11.319Z,11.07
2022-11-24T03:31:21.704Z,8.37
2022-11-24T03:33:50.443Z,5.20
2022-11-24T03:36:17.901Z,8.37
2022-11-24T03:38:45.368Z,12.37
2022-11-24T03:41:12.725Z,7.67
2022-11-24T03:43:43.655Z,9.77
2022-11-24T03:46:11.965Z,7.13
2022-11-24T03:48:39.386Z,8.13
2022-11-24T03:51:08.389Z,11.00
2022-11-24T03:53:35.864Z,6.30
2022-11-24T03:56:25.485Z,5.63
2022-11-24T03:58:52.806Z,3.80
2022-11-24T04:01:20.207Z,3.67
2022-11-24T04:03:47.536Z,3.60
2022-11-24T04:06:16.500Z,4.30
2022-11-24T04:08:43.780Z,2.53
2022-11-24T04:11:11.108Z,2.77
2022-11-24T04:13:38.420Z,6.00
2022-11-24T04:16:06.289Z,5.93
2022-11-24T04:18:33.548Z,5.77
2022-11-24T04:21:00.860Z,4.87
2022-11-24T04:23:29.460Z,5.57
2022-11-24T04:25:56.860Z,3.83
2022-11-24T04:28:24.475Z,5.57
2022-11-24T04:31:17.322Z,3.20
2022-11-24T04:33:44.780Z,3.53
2022-11-24T04:36:12.064Z,3.13
2022-11-24T04:39:23.250Z,2.67
2022-11-24T04:41:27.940Z,3.43
2022-11-24T04:43:56.187Z,2.90
2022-11-24T04:46:23.554Z,3.10
2022-11-24T04:48:50.900Z,3.03
2022-11-24T04:51:18.167Z,3.20
2022-11-24T04:56:34.693Z,3.67
2022-11-24T04:59:07.826Z,4.63
2022-11-24T05:01:35.818Z,6.93
2022-11-24T05:04:03.198Z,5.83
2022-11-24T05:06:30.676Z,3.43
2022-11-24T05:08:59.251Z,4.50
2022-11-24T05:11:26.538Z,2.30
2022-11-24T05:13:54.048Z,5.93
2022-11-24T05:16:21.355Z,5.93
2022-11-24T05:18:48.588Z,2.10
2022-11-24T05:21:15.847Z,2.07
2022-11-24T05:23:43.076Z,3.90
2022-11-24T05:26:11.684Z,4.00
2022-11-24T05:28:40.384Z,4.27
2022-11-24T05:31:07.710Z,4.90
2022-11-24T05:33:35.281Z,1.90
2022-11-24T05:36:03.303Z,6.73
2022-11-24T05:38:30.997Z,3.20
2022-11-24T05:41:00.726Z,4.90
2022-11-24T05:46:36.465Z,5.23
2022-11-24T05:49:04.120Z,3.10
2022-11-24T05:51:31.337Z,4.43
2022-11-24T05:54:07.617Z,6.60
2022-11-24T05:56:42.291Z,3.70
2022-11-24T05:59:11.229Z,2.90
2022-11-24T06:01:38.859Z,7.80
2022-11-24T06:04:06.204Z,4.53
2022-11-24T06:06:33.392Z,7.40
2022-11-24T06:09:00.564Z,3.90
2022-11-24T06:11:27.810Z,2.30
2022-11-24T06:13:55.146Z,3.03
2022-11-24T06:16:23.973Z,3.73
2022-11-24T06:18:51.244Z,3.30
2022-11-24T06:21:18.559Z,4.97
2022-11-24T06:23:47.944Z,2.77
2022-11-24T06:26:16.653Z,4.67
2022-11-24T06:28:52.874Z,4.40
2022-11-24T06:31:20.240Z,4.37
2022-11-24T06:33:48.824Z,3.20
2022-11-24T06:36:16.280Z,3.03
2022-11-24T06:38:43.558Z,3.87
2022-11-24T06:41:12.371Z,4.10
2022-11-24T06:46:34.567Z,3.13
2022-11-24T06:49:03.688Z,5.57
2022-11-24T06:51:30.856Z,3.50
2022-11-24T06:53:58.113Z,8.13
2022-11-24T06:56:25.655Z,6.07
2022-11-24T06:59:19.958Z,7.50
2022-11-24T07:01:51.468Z,3.60
2022-11-24T07:04:20.544Z,11.27
2022-11-24T07:06:47.808Z,5.17
2022-11-24T07:09:15.042Z,10.23
2022-11-24T07:11:42.377Z,5.90
2022-11-24T07:14:09.752Z,7.60
2022-11-24T07:16:37.050Z,3.73
2022-11-24T07:19:04.498Z,6.70
2022-11-24T07:21:33.131Z,3.83
2022-11-24T07:24:00.306Z,7.67
2022-11-24T07:26:27.902Z,9.27
2022-11-24T07:28:55.282Z,5.03
2022-11-24T07:31:23.305Z,5.87
2022-11-24T07:33:50.806Z,6.50
2022-11-24T07:36:18.342Z,3.73
2022-11-24T07:38:47.119Z,6.73
2022-11-24T07:41:18.438Z,10.50
2022-11-24T07:43:45.680Z,7.20
2022-11-24T07:46:14.581Z,8.63
2022-11-24T07:48:41.855Z,6.57
2022-11-24T07:51:09.161Z,5.50
2022-11-24T07:53:37.053Z,8.17
2022-11-24T07:56:06.107Z,7.13
2022-11-24T07:58:34.282Z,5.87
2022-11-24T08:01:01.498Z,9.50
2022-11-24T08:03:28.832Z,10.67
2022-11-24T08:08:46.385Z,12.80
2022-11-24T08:11:15.671Z,8.40
2022-11-24T08:13:43.219Z,5.93
2022-11-24T08:16:11.164Z,11.83
2022-11-24T08:18:38.809Z,10.13
2022-11-24T08:21:06.494Z,8.60
2022-11-24T08:23:33.841Z,10.53
2022-11-24T08:26:03.916Z,11.87
2022-11-24T08:28:33.531Z,10.17
2022-11-24T08:31:03.915Z,5.87
2022-11-24T08:36:19.346Z,9.13
2022-11-24T08:38:46.981Z,17.93
2022-11-24T08:41:15.112Z,10.07
2022-11-24T08:43:43.652Z,13.00
2022-11-24T08:46:13.572Z,9.10
2022-11-24T08:48:48.437Z,11.57
2022-11-24T08:51:37.128Z,12.60
2022-11-24T08:54:16.683Z,10.20
2022-11-24T08:56:43.905Z,12.90
2022-11-24T08:59:13.626Z,14.43
2022-11-24T09:01:41.152Z,11.80
2022-11-24T09:04:08.514Z,10.43
2022-11-24T09:06:35.801Z,11.43
2022-11-24T09:09:03.262Z,14.50
2022-11-24T09:11:30.742Z,12.63
2022-11-24T09:13:58.014Z,14.33
2022-11-24T09:16:27.840Z,9.97
2022-11-24T09:18:57.939Z,9.70
2022-11-24T09:21:25.165Z,14.77
2022-11-24T09:24:01.602Z,14.17
2022-11-24T09:26:36.017Z,13.93
2022-11-24T09:29:04.627Z,16.27
2022-11-24T09:31:34.776Z,10.43
2022-11-24T09:34:02.556Z,13.13
2022-11-24T09:36:29.788Z,14.57
2022-11-24T09:38:56.987Z,12.57
2022-11-24T09:41:38.860Z,11.60
2022-11-24T09:44:08.818Z,15.50
2022-11-24T09:46:43.220Z,19.00
2022-11-24T09:49:13.673Z,13.10
2022-11-24T09:51:42.157Z,8.83
2022-11-24T09:54:12.945Z,12.80
2022-11-24T09:56:42.582Z,14.87
2022-11-24T09:59:15.518Z,14.43
2022-11-24T10:01:46.549Z,18.80
2022-11-24T10:04:15.707Z,12.87
2022-11-24T10:06:47.591Z,13.33
2022-11-24T10:09:21.939Z,15.23
2022-11-24T10:11:53.887Z,22.13
2022-11-24T10:14:28.231Z,12.03
2022-11-24T10:17:02.473Z,9.67
2022-11-24T10:19:37.451Z,10.63
2022-11-24T10:22:21.351Z,14.63
2022-11-24T10:25:14.026Z,17.40
2022-11-24T10:27:44.241Z,27.57
2022-11-24T10:30:13.873Z,12.03
2022-11-24T10:32:45.785Z,10.40
2022-11-24T10:35:14.966Z,10.70
2022-11-24T10:37:46.536Z,16.87
2022-11-24T10:40:55.839Z,17.80
2022-11-24T10:43:05.651Z,15.43
2022-11-24T10:45:32.990Z,15.90
2022-11-24T10:48:01.772Z,12.70
2022-11-24T10:50:31.972Z,17.27
2022-11-24T10:53:26.665Z,16.27
2022-11-24T10:56:08.896Z,29.13
2022-11-24T10:58:38.472Z,15.87
2022-11-24T11:01:20.669Z,15.50
2022-11-24T11:03:50.057Z,21.43
2022-11-24T11:06:22.119Z,17.27
2022-11-24T11:08:49.470Z,16.17
2022-11-24T11:14:12.658Z,15.40
2022-11-24T11:16:40.854Z,14.80
2022-11-24T11:22:20.679Z,15.97
2022-11-24T11:24:48.510Z,17.77
2022-11-24T11:27:20.357Z,14.87
2022-11-24T11:35:41.662Z,12.83
2022-11-24T11:38:08.942Z,19.77
2022-11-24T11:40:37.286Z,14.20
2022-11-24T11:43:06.780Z,17.67
2022-11-24T11:45:35.693Z,10.80
2022-11-24T11:48:09.516Z,15.40
2022-11-24T11:51:06.656Z,16.47
2022-11-24T11:53:34.777Z,12.03
2022-11-24T11:56:12.959Z,13.43
2022-11-24T11:58:55.138Z,13.83
2022-11-24T12:01:53.570Z,16.07
2022-11-24T12:08:21.354Z,23.20
2022-11-24T12:10:54.186Z,18.40
2022-11-24T12:13:35.163Z,19.33
2022-11-24T12:16:08.292Z,15.73
2022-11-24T12:18:57.000Z,14.50
2022-11-24T12:21:30.441Z,11.20
2022-11-24T12:24:02.755Z,11.60
2022-11-24T12:26:35.704Z,15.50
2022-11-24T12:29:09.252Z,16.00
2022-11-24T12:31:41.515Z,15.33
2022-11-24T12:34:17.345Z,17.90
2022-11-24T12:36:55.267Z,15.33
2022-11-24T12:39:26.230Z,11.30
2022-11-24T12:42:02.304Z,11.83
2022-11-24T12:44:36.126Z,15.03
2022-11-24T12:47:08.214Z,19.10
2022-11-24T12:49:39.404Z,11.13
2022-11-24T12:52:21.699Z,11.03
2022-11-24T12:54:48.880Z,21.03
2022-11-24T12:57:19.620Z,8.03
2022-11-24T12:59:50.292Z,12.77
2022-11-24T13:02:26.012Z,12.90
2022-11-24T13:04:55.909Z,16.20
2022-11-24T13:07:27.662Z,14.73
2022-11-24T13:10:13.868Z,12.67
2022-11-24T13:12:59.311Z,12.40
2022-11-24T13:15:45.160Z,15.57
2022-11-24T13:18:43.173Z,12.10
2022-11-24T13:21:25.689Z,12.77
2022-11-24T13:23:56.895Z,21.27
2022-11-24T13:26:29.622Z,13.13
2022-11-24T13:29:09.290Z,17.30
2022-11-24T13:31:40.648Z,15.03
2022-11-24T13:34:22.871Z,13.90
2022-11-24T13:36:53.614Z,14.43
2022-11-24T13:39:21.526Z,14.10
2022-11-24T13:42:09.761Z,22.23
2022-11-24T13:48:41.972Z,15.83
2022-11-24T13:51:15.217Z,11.07
2022-11-24T13:53:44.020Z,13.40
2022-11-24T13:56:21.138Z,13.63
2022-11-24T13:58:49.352Z,13.53
2022-11-24T14:01:20.047Z,12.23
2022-11-24T14:04:21.555Z,7.83
2022-11-24T14:06:38.694Z,13.73
2022-11-24T14:09:21.453Z,11.77
2022-11-24T14:11:56.682Z,13.40
2022-11-24T14:14:24.669Z,11.90
2022-11-24T14:17:07.151Z,15.27
2022-11-24T14:19:41.711Z,12.20
2022-11-24T14:22:24.925Z,11.27
2022-11-24T14:25:00.716Z,12.70
2022-11-24T14:27:32.072Z,8.50
2022-11-24T14:30:00.245Z,9.07
2022-11-24T14:32:27.497Z,12.30
2022-11-24T14:34:56.081Z,13.63
2022-11-24T14:37:23.399Z,16.93
2022-11-24T14:39:50.752Z,12.40
2022-11-24T14:42:19.668Z,13.13
2022-11-24T14:44:48.872Z,13.67
2022-11-24T14:47:19.742Z,19.90
2022-11-24T14:50:05.874Z,13.83
2022-11-24T14:52:55.762Z,7.47
2022-11-24T14:55:27.872Z,9.37
2022-11-24T14:57:55.166Z,16.00
2022-11-24T15:00:26.714Z,13.33
2022-11-24T15:02:54.816Z,12.27
2022-11-24T15:05:23.274Z,11.20
2022-11-24T15:07:52.263Z,11.33
2022-11-24T15:10:30.640Z,11.47
2022-11-24T15:13:03.994Z,14.90
2022-11-24T15:15:32.084Z,12.70
2022-11-24T15:17:59.943Z,15.13
2022-11-24T15:20:28.996Z,15.30
2022-11-24T15:23:18.490Z,6.47
2022-11-24T15:25:46.230Z,5.70
2022-11-24T15:28:23.306Z,11.43
2022-11-24T15:30:50.815Z,7.43
2022-11-24T15:33:19.929Z,13.63
2022-11-24T15:35:47.478Z,13.00
2022-11-24T15:38:14.778Z,13.97
2022-11-24T15:40:43.285Z,15.93
2022-11-24T15:46:14.179Z,15.37
2022-11-24T15:48:41.485Z,12.50
2022-11-24T15:51:12.035Z,17.63
2022-11-24T15:53:40.261Z,11.50
2022-11-24T15:56:09.243Z,17.67
2022-11-24T15:58:42.143Z,6.03
2022-11-24T16:01:31.302Z,12.00
2022-11-24T16:04:00.376Z,14.30
2022-11-24T16:06:27.616Z,13.60
2022-11-24T16:08:55.162Z,13.37
2022-11-24T16:11:22.879Z,14.80
2022-11-24T16:13:53.406Z,16.60
2022-11-24T16:16:21.841Z,11.37
2022-11-24T16:18:49.173Z,17.53
2022-11-24T16:21:17.875Z,8.87
2022-11-24T16:23:45.072Z,15.83
2022-11-24T16:26:12.295Z,17.67
2022-11-24T16:28:39.532Z,14.37
2022-11-24T16:31:06.802Z,12.37
2022-11-24T16:33:34.070Z,10.20
2022-11-24T16:36:01.280Z,12.50
2022-11-24T16:38:29.858Z,20.83
2022-11-24T16:40:57.089Z,10.53
2022-11-24T16:43:24.371Z,14.77
2022-11-24T16:45:59.201Z,10.50
2022-11-24T16:48:26.531Z,11.00
2022-11-24T16:50:53.696Z,13.60
2022-11-24T16:53:20.936Z,12.60
2022-11-24T16:55:58.145Z,13.07
2022-11-24T16:58:25.398Z,21.93
2022-11-24T17:00:52.708Z,12.17
2022-11-24T17:03:19.920Z,12.60
2022-11-24T17:05:56.939Z,4.27
2022-11-24T17:08:24.194Z,14.53
2022-11-24T17:10:51.415Z,21.17
2022-11-24T17:13:20.012Z,13.67
2022-11-24T17:15:52.570Z,14.07
2022-11-24T17:18:25.413Z,13.77
2022-11-24T17:20:52.993Z,15.33
2022-11-24T17:23:20.233Z,16.57
2022-11-24T17:25:47.486Z,11.60
2022-11-24T17:28:14.773Z,14.37
2022-11-24T17:30:43.392Z,10.40
2022-11-24T17:33:10.641Z,13.90
2022-11-24T17:35:38.121Z,17.20
2022-11-24T17:38:05.462Z,14.33
2022-11-24T17:40:32.699Z,13.20
2022-11-24T17:42:59.918Z,9.23
2022-11-24T17:45:27.590Z,12.67
2022-11-24T17:47:56.260Z,8.87
2022-11-24T17:50:26.100Z,19.43
2022-11-24T17:52:53.932Z,12.83
2022-11-24T17:55:21.174Z,13.93
2022-11-24T17:57:48.390Z,12.13
2022-11-24T18:00:16.083Z,11.30
2022-11-24T18:02:43.358Z,12.63
2022-11-24T18:05:11.984Z,9.57
2022-11-24T18:07:39.261Z,11.43
2022-11-24T18:10:07.008Z,14.80
2022-11-24T18:12:34.394Z,12.03
2022-11-24T18:15:01.658Z,11.07
2022-11-24T18:17:28.913Z,8.97
2022-11-24T18:19:56.143Z,13.83
2022-11-24T18:22:50.134Z,9.87
2022-11-24T18:25:11.912Z,20.77
2022-11-24T18:27:39.114Z,14.73
2022-11-24T18:30:06.920Z,13.80
2022-11-24T18:32:34.117Z,14.13
2022-11-24T18:35:01.349Z,14.40
2022-11-24T18:37:31.246Z,11.43
2022-11-24T18:39:58.456Z,11.97
2022-11-24T18:42:25.734Z,12.80
2022-11-24T18:44:54.339Z,13.63
2022-11-24T18:47:21.694Z,7.23
2022-11-24T18:49:48.966Z,9.53
2022-11-24T18:52:16.230Z,8.63
2022-11-24T18:54:44.864Z,11.30
2022-11-24T18:57:12.066Z,13.83
2022-11-24T18:59:39.296Z,9.60
2022-11-24T19:02:06.712Z,14.67
2022-11-24T19:04:34.115Z,12.97
2022-11-24T19:07:01.646Z,9.73
2022-11-24T19:09:28.881Z,11.80
2022-11-24T19:11:57.467Z,9.50
2022-11-24T19:14:24.652Z,18.73
2022-11-24T19:16:51.945Z,16.80
2022-11-24T19:19:19.219Z,15.20
2022-11-24T19:21:46.580Z,13.53
2022-11-24T19:24:13.825Z,14.77
2022-11-24T19:26:41.106Z,13.87
2022-11-24T19:29:09.670Z,12.57
2022-11-24T19:31:37.493Z,16.53
2022-11-24T19:34:04.770Z,11.37
2022-11-24T19:36:32.346Z,10.33
2022-11-24T19:38:59.567Z,12.33
2022-11-24T19:41:27.893Z,19.10
2022-11-24T19:43:55.291Z,16.83
2022-11-24T19:46:24.460Z,12.93
2022-11-24T19:48:51.787Z,14.97
2022-11-24T19:51:19.805Z,11.50
2022-11-24T19:53:47.401Z,9.87
2022-11-24T19:56:17.224Z,7.53
2022-11-24T19:58:44.434Z,15.97
2022-11-24T20:01:12.784Z,8.37
2022-11-24T20:03:41.786Z,16.37
2022-11-24T20:06:10.107Z,13.73
2022-11-24T20:08:38.462Z,10.23
2022-11-24T20:11:06.648Z,16.67
2022-11-24T20:13:34.506Z,14.40
2022-11-24T20:16:04.989Z,11.23
2022-11-24T20:18:35.233Z,15.93
2022-11-24T20:21:07.341Z,17.67
2022-11-24T20:23:34.597Z,8.37
2022-11-24T20:26:05.358Z,17.73
2022-11-24T20:28:32.674Z,6.77
2022-11-24T20:31:03.100Z,9.43
2022-11-24T20:33:31.254Z,17.43
2022-11-24T20:36:02.152Z,14.40
2022-11-24T20:38:31.184Z,10.10
2022-11-24T20:41:06.017Z,16.63
2022-11-24T20:43:36.532Z,8.90
2022-11-24T20:46:04.046Z,12.87
2022-11-24T20:48:31.360Z,15.60
2022-11-24T20:51:02.983Z,14.77
2022-11-24T20:53:31.575Z,15.57
2022-11-24T20:56:05.891Z,11.33
2022-11-24T20:58:33.909Z,18.33
2022-11-24T21:01:03.773Z,13.07
2022-11-24T21:03:31.124Z,11.60
2022-11-24T21:05:58.367Z,14.70
2022-11-24T21:08:25.623Z,13.93
2022-11-24T21:10:54.700Z,17.23
2022-11-24T21:13:21.955Z,17.43
2022-11-24T21:15:49.192Z,16.37
2022-11-24T21:18:16.431Z,16.47
2022-11-24T21:20:43.708Z,16.90
2022-11-24T21:23:10.953Z,11.80
2022-11-24T21:25:38.221Z,11.67
2022-11-24T21:28:06.906Z,12.13
2022-11-24T21:30:34.125Z,14.47
2022-11-24T21:33:02.085Z,12.70
2022-11-24T21:35:29.274Z,11.90
2022-11-24T21:37:56.496Z,21.60
2022-11-24T21:40:23.776Z,12.80
2022-11-24T21:42:50.973Z,13.17
2022-11-24T21:45:19.629Z,14.60
2022-11-24T21:47:46.845Z,18.07
2022-11-24T21:50:14.120Z,18.03
2022-11-24T21:52:41.312Z,14.70
2022-11-24T21:55:09.000Z,12.07
2022-11-24T21:57:36.200Z,15.10
2022-11-24T22:00:03.536Z,15.13
2022-11-24T22:02:35.082Z,19.47
2022-11-24T22:05:02.348Z,23.27
2022-11-24T22:07:31.308Z,13.17
2022-11-24T22:09:58.556Z,14.23
2022-11-24T22:12:25.833Z,13.20
2022-11-24T22:14:53.028Z,16.73
2022-11-24T22:17:20.220Z,13.13
2022-11-24T22:19:48.751Z,10.43
2022-11-24T22:22:15.985Z,13.53
2022-11-24T22:24:43.214Z,16.37
2022-11-24T22:27:10.424Z,11.33
2022-11-24T22:29:37.620Z,11.97
2022-11-24T22:32:05.266Z,17.13
2022-11-24T22:34:32.696Z,15.67
2022-11-24T22:37:01.435Z,11.70
2022-11-24T22:39:28.625Z,8.73
2022-11-24T22:41:55.821Z,19.93
2022-11-24T22:44:23.004Z,15.40
2022-11-24T22:46:50.212Z,9.90
2022-11-24T22:49:17.441Z,9.27
2022-11-24T22:51:44.660Z,13.57
2022-11-24T22:54:13.483Z,9.97
2022-11-24T22:56:40.767Z,16.10
2022-11-24T22:59:07.982Z,13.40
2022-11-24T23:01:35.570Z,17.80
2022-11-24T23:04:02.917Z,12.80
2022-11-24T23:06:31.750Z,16.33
2022-11-24T23:08:59.639Z,9.03
2022-11-24T23:11:35.089Z,10.90
2022-11-24T23:14:03.926Z,14.27
2022-11-24T23:16:31.299Z,17.90
2022-11-24T23:18:58.723Z,15.67
2022-11-24T23:21:27.146Z,15.30
2022-11-24T23:23:54.597Z,8.00
2022-11-24T23:26:25.564Z,11.13
2022-11-24T23:28:54.176Z,11.67
2022-11-24T23:31:22.403Z,10.50
2022-11-24T23:33:49.738Z,11.53
2022-11-24T23:36:17.571Z,11.53
2022-11-24T23:38:45.176Z,13.70
2022-11-24T23:41:13.206Z,11.97
2022-11-24T23:43:41.256Z,19.07
2022-11-24T23:46:10.563Z,9.07
2022-11-24T23:48:38.369Z,12.10
2022-11-24T23:51:06.358Z,16.33
2022-11-24T23:53:33.813Z,13.97
2022-11-24T23:56:01.078Z,19.93
2022-11-24T23:58:28.313Z,11.27
